METAR Data
IDs: Format: Raw Decoded Include TAF

Data at: 1702 UTC 16 Oct 2021

KPRS 161655Z AUTO 04013G18KT 10SM CLR 19/02 A3041 RMK AO2 T01910015
KPRS 161635Z AUTO 05014KT 10SM CLR 19/01 A3042 RMK AO2 T01860012
KPRS 161615Z AUTO 06014G20KT 10SM CLR 18/01 A3043 RMK AO2 T01840014
KPRS 161555Z AUTO 06012G18KT 10SM CLR 18/01 A3043 RMK AO2 T01800013
KPRS 161535Z AUTO 04015G22KT 10SM CLR 17/01 A3042 RMK AO2 T01700013
KPRS 161515Z AUTO 06014G20KT 10SM CLR 17/02 A3042 RMK AO2 T01690015
KPRS 161455Z AUTO 06014G21KT 10SM CLR 16/01 A3042 RMK AO2 T01600013
KPRS 161435Z AUTO 04013G18KT 10SM CLR 16/02 A3042 RMK AO2 T01580015
KPRS 161415Z AUTO 05011G17KT 10SM CLR 16/02 A3041 RMK AO2 T01550015
KPRS 161355Z AUTO 05009KT 10SM CLR 15/02 A3040 RMK AO2 T01480015
KPRS 161335Z AUTO 04010G15KT 10SM CLR 15/02 A3039 RMK AO2 T01450015
KPRS 161315Z AUTO 03011G14KT 10SM CLR 14/02 A3039 RMK AO2 T01430016
KPRS 161255Z AUTO 03011G16KT 10SM CLR 15/02 A3037 RMK AO2 T01450016
KPRS 161235Z AUTO 03009G15KT 10SM CLR 15/02 A3037 RMK AO2 T01470017
KPRS 161215Z AUTO 03013G17KT 10SM CLR 15/02 A3036 RMK AO2 T01490017
KPRS 161155Z AUTO 03012G19KT 10SM CLR 15/02 A3036 RMK AO2 T01500017 10192 20150
KPRS 161135Z AUTO 04010G16KT 10SM CLR 15/02 A3035 RMK AO2 T01520020
KPRS 161115Z AUTO 04010G17KT 10SM CLR 16/02 A3034 RMK AO2 T01550017
KPRS 161055Z AUTO 04012G18KT 10SM CLR 16/01 A3034 RMK AO2 T01570014
KPRS 161035Z AUTO 04010G19KT 10SM CLR 16/01 A3033 RMK AO2 T01600010
KPRS 161015Z AUTO 04011KT 10SM CLR 16/01 A3033 RMK AO2 T01620008
KPRS 160955Z AUTO 04011G15KT 10SM CLR 17/01 A3033 RMK AO2 T01650006
KPRS 160935Z AUTO 03009G14KT 10SM CLR 17/01 A3031 RMK AO2 T01670005
KPRS 160915Z AUTO 04009G14KT 10SM CLR 17/00 A3032 RMK AO2 T01700002
KPRS 160855Z AUTO 04010KT 10SM CLR 17/00 A3032 RMK AO2 T01710000
KPRS 160835Z AUTO 03010KT 10SM CLR 18/00 A3032 RMK AO2 T01750000
KPRS 160815Z AUTO 03008G16KT 10SM CLR 18/00 A3031 RMK AO2 T01771002
KPRS 160755Z AUTO 05007G14KT 10SM CLR 18/00 A3031 RMK AO2 T01801005
KPRS 160735Z AUTO 04008KT 10SM CLR 18/M01 A3031 RMK AO2 T01831006
KPRS 160715Z AUTO 03008KT 10SM CLR 18/M01 A3030 RMK AO2 T01841008
KPRS 160655Z AUTO 03007KT 10SM CLR 18/M01 A3029 RMK AO2 T01841010
KPRS 160635Z AUTO 01009G15KT 10SM CLR 19/M01 A3029 RMK AO2 T01851011
KPRS 160615Z AUTO 02010G15KT 10SM CLR 19/M01 A3029 RMK AO2 T01881013
KPRS 160555Z AUTO 02011G16KT 10SM CLR 19/M01 A3029 RMK AO2 T01921012 10277 20192 403000129
KPRS 160535Z AUTO 02012G18KT 10SM CLR 19/M01 A3028 RMK AO2 T01941011
KPRS 160515Z AUTO 02012G18KT 10SM CLR 20/M01 A3027 RMK AO2 T01951012
KPRS 160455Z AUTO 02013G19KT 10SM CLR 20/M01 A3027 RMK AO2 T01971012
KPRS 160435Z AUTO 02012G20KT 10SM CLR 20/M01 A3026 RMK AO2 T02001015
KPRS 160415Z AUTO 02014G20KT 10SM CLR 20/M02 A3026 RMK AO2 T02021016
KPRS 160355Z AUTO 02015G22KT 10SM CLR 21/M02 A3025 RMK AO2 T02051017
KPRS 160335Z AUTO 02015G21KT 10SM CLR 21/M02 A3024 RMK AO2 T02061018
KPRS 160315Z AUTO 02019G24KT 10SM CLR 21/M02 A3023 RMK AO2 T02101018
KPRS 160255Z AUTO 02015G23KT 10SM CLR 21/M02 A3022 RMK AO2 T02131018
KPRS 160235Z AUTO 02017G21KT 10SM CLR 22/M02 A3021 RMK AO2 T02161018
KPRS 160215Z AUTO 02015G22KT 10SM CLR 22/M02 A3020 RMK AO2 T02211019
KPRS 160155Z AUTO 02016G23KT 10SM CLR 23/M02 A3018 RMK AO2 T02271020
KPRS 160135Z AUTO 02013G22KT 10SM CLR 24/M02 A3017 RMK AO2 T02351025
KPRS 160115Z AUTO 04012G16KT 10SM CLR 25/M03 A3016 RMK AO2 T02451027
KPRS 160055Z AUTO 03012G21KT 10SM CLR 25/M03 A3015 RMK AO2 T02531027
KPRS 160035Z AUTO 04014G19KT 10SM CLR 26/M03 A3014 RMK AO2 T02601028
KPRS 160015Z AUTO 05013G18KT 10SM CLR 27/M03 A3013 RMK AO2 T02701026
KPRS 152355Z AUTO 04012G16KT 10SM CLR 28/M02 A3013 RMK AO2 T02771025 10300 20276
KPRS 152335Z AUTO 05010G18KT 10SM CLR 28/M02 A3012 RMK AO2 T02831022
KPRS 152315Z AUTO 03012G19KT 10SM CLR 29/M02 A3011 RMK AO2 T02881020
KPRS 152255Z AUTO 04009G14KT 10SM CLR 29/M02 A3011 RMK AO2 T02911020
KPRS 152235Z AUTO 36008KT 10SM CLR 30/M02 A3011 RMK AO2 T02961020
KPRS 152215Z AUTO 02009G19KT 10SM CLR 30/M02 A3011 RMK AO2 T02951021
KPRS 152155Z AUTO 01007KT 10SM CLR 30/M02 A3011 RMK AO2 T03001022
KPRS 152135Z AUTO 34010KT 10SM CLR 29/M02 A3011 RMK AO2 T02931023
KPRS 152115Z AUTO 36006KT 10SM CLR 30/M02 A3011 RMK AO2 T02971024
KPRS 152055Z AUTO 35007KT 10SM CLR 29/M02 A3011 RMK AO2 T02931025
KPRS 152035Z AUTO 02011G15KT 10SM CLR 29/M03 A3011 RMK AO2 T02871027
KPRS 152015Z AUTO 33010G15KT 10SM CLR 29/M03 A3012 RMK AO2 T02901029
KPRS 151955Z AUTO 01003G14KT 10SM CLR 28/M03 A3012 RMK AO2 T02841030
KPRS 151935Z AUTO 04009G15KT 10SM CLR 29/M03 A3013 RMK AO2 T02851030
KPRS 151915Z AUTO 35009KT 320V050 10SM CLR 29/M03 A3014 RMK AO2 T02901031
KPRS 151855Z AUTO 02008G16KT 10SM CLR 28/M03 A3015 RMK AO2 T02811032
KPRS 151835Z AUTO 02011G16KT 10SM CLR 28/M03 A3016 RMK AO2 T02781034
KPRS 151815Z AUTO 36011G21KT 10SM CLR 28/M04 A3017 RMK AO2 T02771036
KPRS 151755Z AUTO 03013G20KT 10SM CLR 28/M04 A3017 RMK AO2 T02781039 10278 20129
KPRS 151735Z AUTO 36008G18KT 10SM CLR 27/M04 A3018 RMK AO2 T02701041
KPRS 151715Z AUTO 03012G16KT 10SM CLR 27/M04 A3018 RMK AO2 T02661041
KPRS 151655Z AUTO 02014G21KT 010V070 10SM CLR 26/M03 A3018 RMK AO2 T02571026
KPRS 151635Z AUTO 00000KT 10SM CLR 24/M01 A3018 RMK AO2 T02391006
KPRS 151615Z AUTO 12004KT 10SM CLR 23/00 A3019 RMK AO2 T02270000
KPRS 151555Z AUTO 17004KT 10SM CLR 21/00 A3018 RMK AO2 T02120000
KPRS 151535Z AUTO 20004KT 10SM CLR 21/00 A3017 RMK AO2 T02051005
KPRS 151515Z AUTO 27004KT 10SM CLR 20/00 A3016 RMK AO2 T01990001
KPRS 151455Z AUTO 00000KT 10SM CLR 18/00 A3016 RMK AO2 T01840001
KPRS 151435Z AUTO 00000KT 10SM CLR 17/00 A3015 RMK AO2 T01710000
KPRS 151415Z AUTO 26003KT 10SM CLR 17/00 A3013 RMK AO2 T01730001
KPRS 151355Z AUTO 32004KT 10SM CLR 16/00 A3012 RMK AO2 T01550001
KPRS 151335Z AUTO 30004KT 10SM CLR 14/00 A3011 RMK AO2 T01400000
KPRS 151315Z AUTO 00000KT 10SM CLR 14/00 A3010 RMK AO2 T01370000
KPRS 151255Z AUTO 00000KT 10SM CLR 14/00 A3009 RMK AO2 T01430000
KPRS 151235Z AUTO 00000KT 10SM CLR 13/00 A3009 RMK AO2 T01330000
KPRS 151215Z AUTO 00000KT 10SM CLR 16/00 A3007 RMK AO2 T01550003
KPRS 151155Z AUTO 00000KT 10SM CLR 14/00 A3007 RMK AO2 T01360001 10216 20134
KPRS 151135Z AUTO 00000KT 10SM CLR 14/00 A3006 RMK AO2 T01390001
KPRS 151115Z AUTO 00000KT 10SM CLR 15/01 A3005 RMK AO2 T01520005
KPRS 151055Z AUTO 00000KT 10SM CLR 16/01 A3004 RMK AO2 T01610007
KPRS 151035Z AUTO 15003KT 10SM CLR 16/01 A3004 RMK AO2 T01600007
KPRS 151015Z AUTO 16003KT 10SM CLR 16/01 A3003 RMK AO2 T01640011
KPRS 150955Z AUTO 00000KT 10SM CLR 17/02 A3002 RMK AO2 T01700021
KPRS 150935Z AUTO 12003KT 10SM CLR 18/02 A3002 RMK AO2 T01820023
KPRS 150915Z AUTO 00000KT 10SM CLR 18/03 A3001 RMK AO2 T01790025
KPRS 150855Z AUTO 00000KT 10SM CLR 18/02 A3000 RMK AO2 T01840023
KPRS 150835Z AUTO 17004KT 10SM CLR 19/01 A3000 RMK AO2 T01890010
KPRS 150815Z AUTO 11003KT 10SM CLR 21/00 A3000 RMK AO2 T02120000
KPRS 150755Z AUTO 03004KT 10SM CLR 21/00 A2999 RMK AO2 T02140000
KPRS 150735Z AUTO 31003KT 10SM CLR 20/00 A2999 RMK AO2 T01980004
KPRS 150715Z AUTO 32004KT 10SM CLR 20/01 A2998 RMK AO2 T01980014
KPRS 150655Z AUTO 33005KT 10SM CLR 21/02 A2997 RMK AO2 T02070017
KPRS 150635Z AUTO 34006KT 10SM CLR 21/02 A2997 RMK AO2 T02120021
KPRS 150615Z AUTO 35007KT 10SM CLR 22/02 A2997 RMK AO2 T02150022
KPRS 150555Z AUTO 35005KT 10SM CLR 21/02 A2997 RMK AO2 T02090022 10302 20209 403140160
KPRS 150535Z AUTO 33007KT 10SM CLR 22/03 A2997 RMK AO2 T02170025
KPRS 150515Z AUTO 35007KT 10SM CLR 22/03 A2997 RMK AO2 T02200025